createdAt,value
2022-11-15T15:44:30.272Z,69.70
2022-11-15T15:46:59.029Z,68.70
2022-11-15T15:49:28.947Z,68.00
2022-11-15T15:51:55.790Z,70.60
2022-11-15T15:54:22.824Z,70.50
2022-11-15T15:56:56.209Z,68.90
2022-11-15T15:59:23.375Z,68.60
2022-11-15T16:01:52.671Z,70.00
2022-11-15T16:04:28.949Z,67.90
2022-11-15T16:07:05.556Z,70.80
2022-11-15T16:09:52.288Z,69.00
2022-11-15T16:12:23.467Z,68.70
2022-11-15T16:17:21.669Z,68.10
2022-11-15T16:19:58.359Z,66.80
2022-11-15T16:22:26.311Z,66.10
2022-11-15T16:24:55.097Z,67.10
2022-11-15T16:27:25.453Z,65.00
2022-11-15T16:32:48.927Z,63.40
2022-11-15T16:35:31.486Z,63.50
2022-11-15T16:38:20.059Z,64.60
2022-11-15T16:40:58.337Z,63.80
2022-11-15T16:43:30.037Z,63.90
2022-11-15T16:46:13.544Z,64.50
2022-11-15T16:48:50.341Z,64.70
2022-11-15T16:51:30.506Z,63.90
2022-11-15T16:54:01.015Z,64.50
2022-11-15T16:56:30.843Z,61.80
2022-11-15T16:59:24.579Z,61.70
2022-11-15T17:01:52.957Z,60.20
2022-11-15T17:04:24.093Z,61.50
2022-11-15T17:06:52.775Z,61.60
2022-11-15T17:09:27.047Z,62.20
2022-11-15T17:11:55.271Z,62.50
2022-11-15T17:14:27.054Z,62.20
2022-11-15T17:17:00.780Z,61.80
2022-11-15T17:19:46.920Z,61.10
2022-11-15T17:22:19.550Z,62.00
2022-11-15T17:24:51.119Z,60.80
2022-11-15T17:27:19.320Z,61.10
2022-11-15T17:29:49.905Z,61.70
2022-11-15T17:32:30.207Z,61.40
2022-11-15T17:34:58.485Z,60.40
2022-11-15T17:37:25.996Z,60.70
2022-11-15T17:39:55.833Z,61.50
2022-11-15T17:42:25.436Z,60.90
2022-11-15T17:44:52.752Z,60.90
2022-11-15T17:47:22.451Z,60.60
2022-11-15T17:50:12.667Z,60.30
2022-11-15T17:52:39.892Z,61.30
2022-11-15T17:55:07.461Z,60.90
2022-11-15T17:57:37.672Z,61.50
2022-11-15T18:00:13.032Z,61.10
2022-11-15T18:02:42.662Z,61.50
2022-11-15T18:05:12.800Z,61.80
2022-11-15T18:07:42.924Z,60.90
2022-11-15T18:10:18.103Z,61.00
2022-11-15T18:12:46.564Z,61.40
2022-11-15T18:15:13.702Z,63.10
2022-11-15T18:17:41.679Z,62.20
2022-11-15T18:20:11.186Z,60.30
2022-11-15T18:22:40.374Z,61.30
2022-11-15T18:25:07.926Z,61.70
2022-11-15T18:27:34.917Z,60.50
2022-11-15T18:30:03.194Z,61.90
2022-11-15T18:32:32.765Z,61.50
2022-11-15T18:35:00.446Z,61.50
2022-11-15T18:37:27.721Z,61.20
2022-11-15T18:39:54.818Z,61.00
2022-11-15T18:42:22.557Z,60.40
2022-11-15T18:44:50.215Z,60.00
2022-11-15T18:47:22.781Z,60.60
2022-11-15T18:49:51.325Z,59.10
2022-11-15T18:52:19.344Z,59.80
2022-11-15T18:54:46.511Z,59.80
2022-11-15T18:57:13.394Z,56.50
2022-11-15T18:59:40.355Z,57.40
2022-11-15T19:02:08.693Z,57.30
2022-11-15T19:04:36.424Z,56.60
2022-11-15T19:07:06.532Z,56.00
2022-11-15T19:09:34.246Z,55.50
2022-11-15T19:12:01.393Z,56.60
2022-11-15T19:14:29.240Z,56.00
2022-11-15T19:16:59.410Z,54.10
2022-11-15T19:19:31.190Z,55.70
2022-11-15T19:21:58.251Z,56.70
2022-11-15T19:24:27.093Z,55.00
2022-11-15T19:26:54.948Z,54.70
2022-11-15T19:29:21.876Z,55.80
2022-11-15T19:31:49.039Z,56.50
2022-11-15T19:34:16.532Z,56.80
2022-11-15T19:36:45.165Z,55.60
2022-11-15T19:39:14.453Z,56.90
2022-11-15T19:41:45.979Z,56.90
2022-11-15T19:44:13.790Z,56.10
2022-11-15T19:46:41.512Z,56.90
2022-11-15T19:49:11.258Z,57.30
2022-11-15T19:51:39.582Z,57.60
2022-11-15T19:54:09.007Z,57.80
2022-11-15T19:56:39.996Z,57.60
2022-11-15T19:59:07.579Z,58.50
2022-11-15T20:01:38.144Z,58.20
2022-11-15T20:04:06.189Z,57.10
2022-11-15T20:06:36.204Z,57.60
2022-11-15T20:09:04.287Z,56.90
2022-11-15T20:11:31.176Z,55.60
2022-11-15T20:14:00.394Z,57.30
2022-11-15T20:16:27.264Z,58.70
2022-11-15T20:18:54.609Z,62.20
2022-11-15T20:21:21.996Z,59.90
2022-11-15T20:23:50.850Z,58.30
2022-11-15T20:26:22.924Z,58.80
2022-11-15T20:28:51.457Z,59.70
2022-11-15T20:31:18.837Z,60.00
2022-11-15T20:33:46.137Z,59.40
2022-11-15T20:36:17.764Z,59.90
2022-11-15T20:38:45.745Z,59.90
2022-11-15T20:41:16.035Z,58.70
2022-11-15T20:43:44.586Z,59.70
2022-11-15T20:46:16.139Z,59.10
2022-11-15T20:48:43.973Z,58.70
2022-11-15T20:51:21.709Z,61.40
2022-11-15T20:53:52.350Z,61.00
2022-11-15T20:56:21.381Z,59.50
2022-11-15T20:58:50.532Z,59.30
2022-11-15T21:01:24.073Z,59.90
2022-11-15T21:03:53.862Z,59.70
2022-11-15T21:06:21.624Z,61.60
2022-11-15T21:09:08.848Z,60.80
2022-11-15T21:11:56.375Z,60.90
2022-11-15T21:14:25.127Z,65.80
